sensor_id;sensor_type;location;lat;lon;timestamp;temperature;humidity
1417;DHT22;703;51.162;13.574;2023-04-03T00:45:21;1.70;99.90
1417;DHT22;703;51.162;13.574;2023-04-03T00:59:34;1.60;99.90
1417;DHT22;703;51.162;13.574;2023-04-03T01:04:33;1.50;99.90
1417;DHT22;703;51.162;13.574;2023-04-03T01:09:28;1.40;99.90
1417;DHT22;703;51.162;13.574;2023-04-03T01:31:59;1.00;99.90
1417;DHT22;703;51.162;13.574;2023-04-03T05:01:23;-1.40;99.90
1417;DHT22;703;51.162;13.574;2023-04-03T05:20:51;-1.30;99.90
1417;DHT22;703;51.162;13.574;2023-04-03T05:23:17;-1.30;99.90
1417;DHT22;703;51.162;13.574;2023-04-03T05:42:45;-1.00;99.90
1417;DHT22;703;51.162;13.574;2023-04-03T05:45:11;-0.90;99.90
1417;DHT22;703;51.162;13.574;2023-04-03T05:47:36;-0.90;99.90
1417;DHT22;703;51.162;13.574;2023-04-03T05:50:03;-0.90;99.90
1417;DHT22;703;51.162;13.574;2023-04-03T05:52:30;-0.70;99.90
1417;DHT22;703;51.162;13.574;2023-04-03T05:59:50;-0.70;99.90
1417;DHT22;703;51.162;13.574;2023-04-03T06:02:18;-0.70;99.90
1417;DHT22;703;51.162;13.574;2023-04-03T06:04:44;-0.60;99.90
1417;DHT22;703;51.162;13.574;2023-04-03T06:07:15;-0.70;99.90
1417;DHT22;703;51.162;13.574;2023-04-03T06:09:41;-0.60;99.90
1417;DHT22;703;51.162;13.574;2023-04-03T06:12:07;-0.50;99.90
1417;DHT22;703;51.162;13.574;2023-04-03T06:16:59;-0.60;99.90
1417;DHT22;703;51.162;13.574;2023-04-03T06:19:25;-0.60;99.90
1417;DHT22;703;51.162;13.574;2023-04-03T06:21:51;-0.50;99.90
1417;DHT22;703;51.162;13.574;2023-04-03T06:24:17;-0.10;99.90
1417;DHT22;703;51.162;13.574;2023-04-03T06:26:43;-0.30;99.90
1417;DHT22;703;51.162;13.574;2023-04-03T06:29:09;-0.30;99.90
1417;DHT22;703;51.162;13.574;2023-04-03T06:31:34;-0.20;99.90
1417;DHT22;703;51.162;13.574;2023-04-03T06:34:02;-0.20;99.90
1417;DHT22;703;51.162;13.574;2023-04-03T06:36:27;-0.10;99.90
1417;DHT22;703;51.162;13.574;2023-04-03T06:38:54;-0.10;99.90
1417;DHT22;703;51.162;13.574;2023-04-03T06:41:19;-0.10;99.90
1417;DHT22;703;51.162;13.574;2023-04-03T06:46:15;0.00;99.90
1417;DHT22;703;51.162;13.574;2023-04-03T06:48:40;0.00;99.90
1417;DHT22;703;51.162;13.574;2023-04-03T06:51:08;0.20;99.90
1417;DHT22;703;51.162;13.574;2023-04-03T06:53:33;0.20;99.90
1417;DHT22;703;51.162;13.574;2023-04-03T06:55:59;0.30;99.90
1417;DHT22;703;51.162;13.574;2023-04-03T07:05:43;0.50;99.90
1417;DHT22;703;51.162;13.574;2023-04-03T07:08:10;0.50;99.90
1417;DHT22;703;51.162;13.574;2023-04-03T07:10:37;0.50;99.90
1417;DHT22;703;51.162;13.574;2023-04-03T07:13:03;0.50;99.90
1417;DHT22;703;51.162;13.574;2023-04-03T07:15:28;1.70;99.90
1417;DHT22;703;51.162;13.574;2023-04-03T07:17:55;0.70;99.90
1417;DHT22;703;51.162;13.574;2023-04-03T07:20:21;0.80;99.90
1417;DHT22;703;51.162;13.574;2023-04-03T07:25:12;0.90;99.90
1417;DHT22;703;51.162;13.574;2023-04-03T07:30:04;0.90;99.90
1417;DHT22;703;51.162;13.574;2023-04-03T07:32:31;0.80;99.90
1417;DHT22;703;51.162;13.574;2023-04-03T07:34:57;1.00;99.90
1417;DHT22;703;51.162;13.574;2023-04-03T07:37:22;1.10;99.90
1417;DHT22;703;51.162;13.574;2023-04-03T07:42:14;1.00;99.90
1417;DHT22;703;51.162;13.574;2023-04-03T07:44:39;1.10;99.90
1417;DHT22;703;51.162;13.574;2023-04-03T07:47:06;1.20;99.90
1417;DHT22;703;51.162;13.574;2023-04-03T07:49:31;1.30;99.90
1417;DHT22;703;51.162;13.574;2023-04-03T07:51:58;1.40;99.90
1417;DHT22;703;51.162;13.574;2023-04-03T07:54:23;1.30;99.90
1417;DHT22;703;51.162;13.574;2023-04-03T07:56:49;1.60;99.90
1417;DHT22;703;51.162;13.574;2023-04-03T07:59:15;1.90;99.90
1417;DHT22;703;51.162;13.574;2023-04-03T08:01:40;1.80;99.90
1417;DHT22;703;51.162;13.574;2023-04-03T08:04:06;1.80;99.90
1417;DHT22;703;51.162;13.574;2023-04-03T08:06:32;1.90;99.90
1417;DHT22;703;51.162;13.574;2023-04-03T08:09:00;1.90;99.90
1417;DHT22;703;51.162;13.574;2023-04-03T08:11:25;2.10;99.90
1417;DHT22;703;51.162;13.574;2023-04-03T08:13:52;2.20;99.90
1417;DHT22;703;51.162;13.574;2023-04-03T08:16:20;2.10;99.90
1417;DHT22;703;51.162;13.574;2023-04-03T08:21:13;2.10;99.90
1417;DHT22;703;51.162;13.574;2023-04-03T08:23:40;2.10;99.90
1417;DHT22;703;51.162;13.574;2023-04-03T08:26:08;2.10;99.90
1417;DHT22;703;51.162;13.574;2023-04-03T08:28:34;2.80;99.90
1417;DHT22;703;51.162;13.574;2023-04-03T08:31:03;2.00;99.90
1417;DHT22;703;51.162;13.574;2023-04-03T08:35:57;3.00;99.90
1417;DHT22;703;51.162;13.574;2023-04-03T08:38:22;2.90;99.90
1417;DHT22;703;51.162;13.574;2023-04-03T08:40:58;3.00;99.90
1417;DHT22;703;51.162;13.574;2023-04-03T08:46:26;2.70;99.90
1417;DHT22;703;51.162;13.574;2023-04-03T08:48:58;1.70;99.90
1417;DHT22;703;51.162;13.574;2023-04-03T08:51:26;2.70;99.90
1417;DHT22;703;51.162;13.574;2023-04-03T08:53:58;2.70;99.90
1417;DHT22;703;51.162;13.574;2023-04-03T08:59:14;3.00;99.90
1417;DHT22;703;51.162;13.574;2023-04-03T09:01:45;3.00;99.90
1417;DHT22;703;51.162;13.574;2023-04-03T09:04:15;2.90;99.90
1417;DHT22;703;51.162;13.574;2023-04-03T09:06:45;2.30;99.90
1417;DHT22;703;51.162;13.574;2023-04-03T09:14:49;2.60;99.90
1417;DHT22;703;51.162;13.574;2023-04-03T09:17:41;2.80;99.90
1417;DHT22;703;51.162;13.574;2023-04-03T09:22:56;2.80;99.90
1417;DHT22;703;51.162;13.574;2023-04-03T09:25:33;2.80;99.90
1417;DHT22;703;51.162;13.574;2023-04-03T09:28:02;2.70;99.90
1417;DHT22;703;51.162;13.574;2023-04-03T09:30:28;2.60;99.90
1417;DHT22;703;51.162;13.574;2023-04-03T09:32:55;2.70;99.90
1417;DHT22;703;51.162;13.574;2023-04-03T09:37:49;2.90;99.90
1417;DHT22;703;51.162;13.574;2023-04-03T09:40:35;4.40;99.90
1417;DHT22;703;51.162;13.574;2023-04-03T09:43:27;3.00;99.90
1417;DHT22;703;51.162;13.574;2023-04-03T09:45:54;5.10;99.90
1417;DHT22;703;51.162;13.574;2023-04-03T09:48:25;4.90;99.90
1417;DHT22;703;51.162;13.574;2023-04-03T09:50:59;4.50;99.90
1417;DHT22;703;51.162;13.574;2023-04-03T09:56:26;5.30;99.90
1417;DHT22;703;51.162;13.574;2023-04-03T10:01:31;5.70;99.90
1417;DHT22;703;51.162;13.574;2023-04-03T10:04:17;5.80;99.90
1417;DHT22;703;51.162;13.574;2023-04-03T10:06:46;7.00;99.90
1417;DHT22;703;51.162;13.574;2023-04-03T10:09:25;6.90;99.90
1417;DHT22;703;51.162;13.574;2023-04-03T10:12:05;7.00;99.90
1417;DHT22;703;51.162;13.574;2023-04-03T10:14:40;5.60;99.90
1417;DHT22;703;51.162;13.574;2023-04-03T10:17:18;4.30;99.90
1417;DHT22;703;51.162;13.574;2023-04-03T10:19:58;4.20;99.90
1417;DHT22;703;51.162;13.574;2023-04-03T10:25:21;4.00;99.90
1417;DHT22;703;51.162;13.574;2023-04-03T10:28:00;4.50;99.90
1417;DHT22;703;51.162;13.574;2023-04-03T10:33:29;4.50;99.90
1417;DHT22;703;51.162;13.574;2023-04-03T10:36:07;4.80;99.90
1417;DHT22;703;51.162;13.574;2023-04-03T10:38:57;4.80;99.90
1417;DHT22;703;51.162;13.574;2023-04-03T10:41:39;4.70;99.90
1417;DHT22;703;51.162;13.574;2023-04-03T10:44:30;4.80;99.90
1417;DHT22;703;51.162;13.574;2023-04-03T10:47:05;4.60;99.90
1417;DHT22;703;51.162;13.574;2023-04-03T10:58:04;5.30;99.90
1417;DHT22;703;51.162;13.574;2023-04-03T11:00:45;5.10;99.90
1417;DHT22;703;51.162;13.574;2023-04-03T11:03:29;4.90;99.90
1417;DHT22;703;51.162;13.574;2023-04-03T11:05:57;4.80;99.90
1417;DHT22;703;51.162;13.574;2023-04-03T11:08:42;4.70;99.90
1417;DHT22;703;51.162;13.574;2023-04-03T11:11:13;4.50;99.90
1417;DHT22;703;51.162;13.574;2023-04-03T11:16:30;5.00;99.90
1417;DHT22;703;51.162;13.574;2023-04-03T11:19:16;4.70;99.90
1417;DHT22;703;51.162;13.574;2023-04-03T11:24:43;5.20;99.90
1417;DHT22;703;51.162;13.574;2023-04-03T11:27:16;5.40;99.90
1417;DHT22;703;51.162;13.574;2023-04-03T11:29:44;5.10;99.90
1417;DHT22;703;51.162;13.574;2023-04-03T11:35:01;5.40;99.90
1417;DHT22;703;51.162;13.574;2023-04-03T11:40:20;6.80;99.90
1417;DHT22;703;51.162;13.574;2023-04-03T11:42:48;6.90;99.90
1417;DHT22;703;51.162;13.574;2023-04-03T11:47:58;5.70;99.90
1417;DHT22;703;51.162;13.574;2023-04-03T11:55:43;5.70;99.90
1417;DHT22;703;51.162;13.574;2023-04-03T11:58:17;5.60;99.90
1417;DHT22;703;51.162;13.574;2023-04-03T12:16:21;5.70;99.90
1417;DHT22;703;51.162;13.574;2023-04-03T12:19:02;5.60;99.90
1417;DHT22;703;51.162;13.574;2023-04-03T12:32:12;5.10;99.90
1417;DHT22;703;51.162;13.574;2023-04-03T12:34:54;5.50;99.90
1417;DHT22;703;51.162;13.574;2023-04-03T12:40:32;5.40;99.90
1417;DHT22;703;51.162;13.574;2023-04-03T12:46:11;5.50;99.90
1417;DHT22;703;51.162;13.574;2023-04-03T12:48:46;5.60;99.90
1417;DHT22;703;51.162;13.574;2023-04-03T12:51:22;5.40;99.90
1417;DHT22;703;51.162;13.574;2023-04-03T12:54:00;6.10;99.90
1417;DHT22;703;51.162;13.574;2023-04-03T12:56:28;5.60;99.90
1417;DHT22;703;51.162;13.574;2023-04-03T12:58:57;5.80;99.90
1417;DHT22;703;51.162;13.574;2023-04-03T13:01:37;5.20;99.90
1417;DHT22;703;51.162;13.574;2023-04-03T13:04:03;4.90;99.90
1417;DHT22;703;51.162;13.574;2023-04-03T13:06:39;5.10;99.90
1417;DHT22;703;51.162;13.574;2023-04-03T13:09:14;4.90;99.90
1417;DHT22;703;51.162;13.574;2023-04-03T13:11:43;4.60;99.90
1417;DHT22;703;51.162;13.574;2023-04-03T13:14:28;4.60;99.90
1417;DHT22;703;51.162;13.574;2023-04-03T13:16:56;4.80;99.90
1417;DHT22;703;51.162;13.574;2023-04-03T13:19:26;5.00;99.90
1417;DHT22;703;51.162;13.574;2023-04-03T13:21:59;4.70;99.90
1417;DHT22;703;51.162;13.574;2023-04-03T13:24:26;4.90;99.90
1417;DHT22;703;51.162;13.574;2023-04-03T13:26:52;4.70;99.90
1417;DHT22;703;51.162;13.574;2023-04-03T13:29:34;4.70;99.90
1417;DHT22;703;51.162;13.574;2023-04-03T13:32:01;4.60;99.90
1417;DHT22;703;51.162;13.574;2023-04-03T13:34:32;4.90;99.90
1417;DHT22;703;51.162;13.574;2023-04-03T13:37:01;4.90;99.90
1417;DHT22;703;51.162;13.574;2023-04-03T13:39:38;5.20;99.90
1417;DHT22;703;51.162;13.574;2023-04-03T13:42:25;5.60;99.90
1417;DHT22;703;51.162;13.574;2023-04-03T13:47:47;5.60;99.90
1417;DHT22;703;51.162;13.574;2023-04-03T13:50:25;5.40;99.90
1417;DHT22;703;51.162;13.574;2023-04-03T13:52:55;4.90;99.90
1417;DHT22;703;51.162;13.574;2023-04-03T13:55:25;4.90;99.90
1417;DHT22;703;51.162;13.574;2023-04-03T13:57:56;5.00;99.90
1417;DHT22;703;51.162;13.574;2023-04-03T14:03:33;4.80;99.90
1417;DHT22;703;51.162;13.574;2023-04-03T14:05:59;4.50;99.90
1417;DHT22;703;51.162;13.574;2023-04-03T14:08:26;4.30;99.90
1417;DHT22;703;51.162;13.574;2023-04-03T14:10:52;4.60;99.90
1417;DHT22;703;51.162;13.574;2023-04-03T14:13:19;4.50;99.90
1417;DHT22;703;51.162;13.574;2023-04-03T14:15:46;4.80;99.90
1417;DHT22;703;51.162;13.574;2023-04-03T14:18:15;4.80;99.90
1417;DHT22;703;51.162;13.574;2023-04-03T14:20:42;4.80;99.90
1417;DHT22;703;51.162;13.574;2023-04-03T14:23:08;4.80;99.90
1417;DHT22;703;51.162;13.574;2023-04-03T14:25:34;4.70;99.90
1417;DHT22;703;51.162;13.574;2023-04-03T14:28:00;4.80;99.90
1417;DHT22;703;51.162;13.574;2023-04-03T14:30:33;4.90;99.90
1417;DHT22;703;51.162;13.574;2023-04-03T14:33:00;4.80;99.90
1417;DHT22;703;51.162;13.574;2023-04-03T14:35:27;4.80;99.90
1417;DHT22;703;51.162;13.574;2023-04-03T14:37:53;4.80;99.90
1417;DHT22;703;51.162;13.574;2023-04-03T14:40:22;5.00;99.90
1417;DHT22;703;51.162;13.574;2023-04-03T14:42:49;5.20;99.90
1417;DHT22;703;51.162;13.574;2023-04-03T14:45:15;4.80;99.90
1417;DHT22;703;51.162;13.574;2023-04-03T14:47:45;4.40;99.90
1417;DHT22;703;51.162;13.574;2023-04-03T14:50:16;4.60;99.90
1417;DHT22;703;51.162;13.574;2023-04-03T14:52:42;4.70;99.90
1417;DHT22;703;51.162;13.574;2023-04-03T14:55:20;4.50;99.90
1417;DHT22;703;51.162;13.574;2023-04-03T14:57:46;4.90;99.90
1417;DHT22;703;51.162;13.574;2023-04-03T15:00:17;4.70;99.90
1417;DHT22;703;51.162;13.574;2023-04-03T15:02:43;4.50;99.90
1417;DHT22;703;51.162;13.574;2023-04-03T15:05:10;4.30;99.90
1417;DHT22;703;51.162;13.574;2023-04-03T15:07:38;4.30;99.90
1417;DHT22;703;51.162;13.574;2023-04-03T15:10:21;4.50;99.90
1417;DHT22;703;51.162;13.574;2023-04-03T15:12:49;4.40;99.90
1417;DHT22;703;51.162;13.574;2023-04-03T15:15:17;4.60;99.90
1417;DHT22;703;51.162;13.574;2023-04-03T15:17:43;4.40;99.90
1417;DHT22;703;51.162;13.574;2023-04-03T15:20:15;4.20;99.90
1417;DHT22;703;51.162;13.574;2023-04-03T15:22:41;4.10;99.90
1417;DHT22;703;51.162;13.574;2023-04-03T15:25:07;4.10;99.90
1417;DHT22;703;51.162;13.574;2023-04-03T15:27:33;4.10;99.90
1417;DHT22;703;51.162;13.574;2023-04-03T15:29:59;4.10;99.90
1417;DHT22;703;51.162;13.574;2023-04-03T15:32:24;4.10;99.90
1417;DHT22;703;51.162;13.574;2023-04-03T15:34:50;4.20;99.90
1417;DHT22;703;51.162;13.574;2023-04-03T15:37:15;4.10;99.90
1417;DHT22;703;51.162;13.574;2023-04-03T15:39:41;4.20;99.90
1417;DHT22;703;51.162;13.574;2023-04-03T15:42:06;4.20;99.90
1417;DHT22;703;51.162;13.574;2023-04-03T15:44:35;4.00;99.90
1417;DHT22;703;51.162;13.574;2023-04-03T15:47:01;4.10;99.90
1417;DHT22;703;51.162;13.574;2023-04-03T15:49:27;4.00;99.90
1417;DHT22;703;51.162;13.574;2023-04-03T15:51:53;4.10;99.90
1417;DHT22;703;51.162;13.574;2023-04-03T15:54:20;4.10;99.90
1417;DHT22;703;51.162;13.574;2023-04-03T15:56:52;4.00;99.90
1417;DHT22;703;51.162;13.574;2023-04-03T15:59:18;3.80;99.90
1417;DHT22;703;51.162;13.574;2023-04-03T16:01:44;3.80;99.90
1417;DHT22;703;51.162;13.574;2023-04-03T16:04:10;3.80;99.90
1417;DHT22;703;51.162;13.574;2023-04-03T16:06:36;3.70;99.90
1417;DHT22;703;51.162;13.574;2023-04-03T16:09:03;3.70;99.90
1417;DHT22;703;51.162;13.574;2023-04-03T16:11:29;3.70;99.90
1417;DHT22;703;51.162;13.574;2023-04-03T16:13:55;3.70;99.90
1417;DHT22;703;51.162;13.574;2023-04-03T16:16:21;3.70;99.90
1417;DHT22;703;51.162;13.574;2023-04-03T16:18:47;3.80;99.90
1417;DHT22;703;51.162;13.574;2023-04-03T16:21:14;3.90;99.90
1417;DHT22;703;51.162;13.574;2023-04-03T16:23:41;3.90;99.90
1417;DHT22;703;51.162;13.574;2023-04-03T16:26:06;3.60;99.90
1417;DHT22;703;51.162;13.574;2023-04-03T16:28:32;3.60;99.90
1417;DHT22;703;51.162;13.574;2023-04-03T16:30:57;3.50;99.90
1417;DHT22;703;51.162;13.574;2023-04-03T16:33:25;3.70;99.90
1417;DHT22;703;51.162;13.574;2023-04-03T16:35:51;3.60;99.90
1417;DHT22;703;51.162;13.574;2023-04-03T16:38:17;3.50;99.90
1417;DHT22;703;51.162;13.574;2023-04-03T16:40:48;3.60;99.90
1417;DHT22;703;51.162;13.574;2023-04-03T16:43:14;3.60;99.90
1417;DHT22;703;51.162;13.574;2023-04-03T16:45:40;3.50;99.90
1417;DHT22;703;51.162;13.574;2023-04-03T16:48:06;3.50;99.90
1417;DHT22;703;51.162;13.574;2023-04-03T16:50:31;3.50;99.90
1417;DHT22;703;51.162;13.574;2023-04-03T16:52:57;3.40;99.90
1417;DHT22;703;51.162;13.574;2023-04-03T16:55:23;3.40;99.90
1417;DHT22;703;51.162;13.574;2023-04-03T16:57:48;3.30;99.90
1417;DHT22;703;51.162;13.574;2023-04-03T17:00:14;3.30;99.90
1417;DHT22;703;51.162;13.574;2023-04-03T17:02:40;3.30;99.90
1417;DHT22;703;51.162;13.574;2023-04-03T17:05:07;3.20;99.90
1417;DHT22;703;51.162;13.574;2023-04-03T17:07:33;3.30;99.90
1417;DHT22;703;51.162;13.574;2023-04-03T17:09:59;3.20;99.90
1417;DHT22;703;51.162;13.574;2023-04-03T17:12:25;3.30;99.90
1417;DHT22;703;51.162;13.574;2023-04-03T17:14:51;3.20;99.90
1417;DHT22;703;51.162;13.574;2023-04-03T17:17:21;3.10;99.90
1417;DHT22;703;51.162;13.574;2023-04-03T17:19:48;3.10;99.90
1417;DHT22;703;51.162;13.574;2023-04-03T17:22:14;3.10;99.90
1417;DHT22;703;51.162;13.574;2023-04-03T17:24:41;3.00;99.90
1417;DHT22;703;51.162;13.574;2023-04-03T17:27:07;2.90;99.90
1417;DHT22;703;51.162;13.574;2023-04-03T17:29:32;2.80;99.90
1417;DHT22;703;51.162;13.574;2023-04-03T17:31:58;2.80;99.90
1417;DHT22;703;51.162;13.574;2023-04-03T17:34:24;2.70;99.90
1417;DHT22;703;51.162;13.574;2023-04-03T17:36:49;2.60;99.90
1417;DHT22;703;51.162;13.574;2023-04-03T17:39:15;2.50;99.90
1417;DHT22;703;51.162;13.574;2023-04-03T17:41:41;2.40;99.90
1417;DHT22;703;51.162;13.574;2023-04-03T17:44:07;2.30;99.90
1417;DHT22;703;51.162;13.574;2023-04-03T17:46:32;2.30;99.90
1417;DHT22;703;51.162;13.574;2023-04-03T17:48:58;2.10;99.90
1417;DHT22;703;51.162;13.574;2023-04-03T17:51:24;2.10;99.90
1417;DHT22;703;51.162;13.574;2023-04-03T17:53:50;2.10;99.90
1417;DHT22;703;51.162;13.574;2023-04-03T17:56:23;2.00;99.90
1417;DHT22;703;51.162;13.574;2023-04-03T17:58:52;1.90;99.90
1417;DHT22;703;51.162;13.574;2023-04-03T18:01:22;1.80;99.90
1417;DHT22;703;51.162;13.574;2023-04-03T18:03:49;1.60;99.90
1417;DHT22;703;51.162;13.574;2023-04-03T18:06:17;1.50;99.90
1417;DHT22;703;51.162;13.574;2023-04-03T18:08:57;1.40;99.90
1417;DHT22;703;51.162;13.574;2023-04-03T18:11:27;1.40;99.90
1417;DHT22;703;51.162;13.574;2023-04-03T18:13:54;1.40;99.90
1417;DHT22;703;51.162;13.574;2023-04-03T18:16:21;1.20;99.90
1417;DHT22;703;51.162;13.574;2023-04-03T18:18:47;1.20;99.90
1417;DHT22;703;51.162;13.574;2023-04-03T18:21:13;1.00;99.90
1417;DHT22;703;51.162;13.574;2023-04-03T18:23:49;1.20;99.90
1417;DHT22;703;51.162;13.574;2023-04-03T18:26:16;1.10;99.90
1417;DHT22;703;51.162;13.574;2023-04-03T18:28:44;1.20;99.90
1417;DHT22;703;51.162;13.574;2023-04-03T18:31:13;1.20;99.90
1417;DHT22;703;51.162;13.574;2023-04-03T18:33:40;1.20;99.90
1417;DHT22;703;51.162;13.574;2023-04-03T18:36:06;1.20;99.90
1417;DHT22;703;51.162;13.574;2023-04-03T18:38:31;1.30;99.90
1417;DHT22;703;51.162;13.574;2023-04-03T18:40:57;1.20;99.90
1417;DHT22;703;51.162;13.574;2023-04-03T18:43:24;1.20;99.90
1417;DHT22;703;51.162;13.574;2023-04-03T18:45:51;1.20;99.90
1417;DHT22;703;51.162;13.574;2023-04-03T18:48:17;1.10;99.90
1417;DHT22;703;51.162;13.574;2023-04-03T18:50:43;1.30;99.90
1417;DHT22;703;51.162;13.574;2023-04-03T18:53:09;1.20;99.90
1417;DHT22;703;51.162;13.574;2023-04-03T18:55:35;1.10;99.90
1417;DHT22;703;51.162;13.574;2023-04-03T18:58:00;1.00;99.90
1417;DHT22;703;51.162;13.574;2023-04-03T19:00:26;3.90;99.90
1417;DHT22;703;51.162;13.574;2023-04-03T19:02:51;1.00;99.90
1417;DHT22;703;51.162;13.574;2023-04-03T19:05:17;1.00;99.90
1417;DHT22;703;51.162;13.574;2023-04-03T19:07:44;1.00;99.90
1417;DHT22;703;51.162;13.574;2023-04-03T19:10:13;1.00;99.90
1417;DHT22;703;51.162;13.574;2023-04-03T19:12:43;1.00;99.90
1417;DHT22;703;51.162;13.574;2023-04-03T19:15:11;1.00;99.90
1417;DHT22;703;51.162;13.574;2023-04-03T19:17:37;1.10;99.90
1417;DHT22;703;51.162;13.574;2023-04-03T19:20:02;1.20;99.90
1417;DHT22;703;51.162;13.574;2023-04-03T19:22:29;1.30;99.90
1417;DHT22;703;51.162;13.574;2023-04-03T19:24:55;1.30;99.90
1417;DHT22;703;51.162;13.574;2023-04-03T19:27:20;1.30;99.90
1417;DHT22;703;51.162;13.574;2023-04-03T19:29:48;1.30;99.90
1417;DHT22;703;51.162;13.574;2023-04-03T19:32:13;1.30;99.90
1417;DHT22;703;51.162;13.574;2023-04-03T19:34:39;1.40;99.90
1417;DHT22;703;51.162;13.574;2023-04-03T19:37:05;1.30;99.90
1417;DHT22;703;51.162;13.574;2023-04-03T19:39:31;1.40;99.90
1417;DHT22;703;51.162;13.574;2023-04-03T19:42:00;1.30;99.90
1417;DHT22;703;51.162;13.574;2023-04-03T19:44:28;1.40;99.90
1417;DHT22;703;51.162;13.574;2023-04-03T19:46:54;1.30;99.90
1417;DHT22;703;51.162;13.574;2023-04-03T19:49:20;3.40;99.90
1417;DHT22;703;51.162;13.574;2023-04-03T19:51:46;1.50;99.90
1417;DHT22;703;51.162;13.574;2023-04-03T19:54:11;1.40;99.90
1417;DHT22;703;51.162;13.574;2023-04-03T19:56:36;1.50;99.90
1417;DHT22;703;51.162;13.574;2023-04-03T19:59:02;1.60;99.90
1417;DHT22;703;51.162;13.574;2023-04-03T20:01:27;1.70;99.90
1417;DHT22;703;51.162;13.574;2023-04-03T20:03:55;1.70;99.90
1417;DHT22;703;51.162;13.574;2023-04-03T20:06:21;1.70;99.90
1417;DHT22;703;51.162;13.574;2023-04-03T20:08:46;1.80;99.90
1417;DHT22;703;51.162;13.574;2023-04-03T20:11:12;1.80;99.90
1417;DHT22;703;51.162;13.574;2023-04-03T20:13:37;1.80;99.90
1417;DHT22;703;51.162;13.574;2023-04-03T20:16:07;1.80;99.90
1417;DHT22;703;51.162;13.574;2023-04-03T20:18:33;1.90;99.90
1417;DHT22;703;51.162;13.574;2023-04-03T20:21:00;1.90;99.90
1417;DHT22;703;51.162;13.574;2023-04-03T20:23:27;1.80;99.90
1417;DHT22;703;51.162;13.574;2023-04-03T20:25:54;1.90;99.90
1417;DHT22;703;51.162;13.574;2023-04-03T20:28:21;1.90;99.90
1417;DHT22;703;51.162;13.574;2023-04-03T20:30:48;1.90;99.90
1417;DHT22;703;51.162;13.574;2023-04-03T20:33:16;1.90;99.90
1417;DHT22;703;51.162;13.574;2023-04-03T20:35:43;1.90;99.90
1417;DHT22;703;51.162;13.574;2023-04-03T20:38:09;1.90;99.90
1417;DHT22;703;51.162;13.574;2023-04-03T20:40:36;1.90;99.90
1417;DHT22;703;51.162;13.574;2023-04-03T20:43:02;1.90;99.90
1417;DHT22;703;51.162;13.574;2023-04-03T20:45:28;1.90;99.90
1417;DHT22;703;51.162;13.574;2023-04-03T20:47:55;1.90;99.90
1417;DHT22;703;51.162;13.574;2023-04-03T20:50:21;1.90;99.90
1417;DHT22;703;51.162;13.574;2023-04-03T20:52:47;1.90;99.90
1417;DHT22;703;51.162;13.574;2023-04-03T20:55:16;1.90;99.90
1417;DHT22;703;51.162;13.574;2023-04-03T20:57:41;1.90;99.90
1417;DHT22;703;51.162;13.574;2023-04-03T21:00:09;3.60;99.90
1417;DHT22;703;51.162;13.574;2023-04-03T21:02:35;1.90;99.90
1417;DHT22;703;51.162;13.574;2023-04-03T21:05:01;1.90;99.90
1417;DHT22;703;51.162;13.574;2023-04-03T21:19:12;1.90;99.90
1417;DHT22;703;51.162;13.574;2023-04-03T21:21:38;1.90;99.90
1417;DHT22;703;51.162;13.574;2023-04-03T21:24:05;1.90;99.90
1417;DHT22;703;51.162;13.574;2023-04-03T21:26:33;1.90;99.90
1417;DHT22;703;51.162;13.574;2023-04-03T21:28:59;1.90;99.90
1417;DHT22;703;51.162;13.574;2023-04-03T21:34:14;1.90;99.90
1417;DHT22;703;51.162;13.574;2023-04-03T21:36:40;1.90;99.90
1417;DHT22;703;51.162;13.574;2023-04-03T21:39:06;1.70;99.90
1417;DHT22;703;51.162;13.574;2023-04-03T21:41:31;1.90;99.90
1417;DHT22;703;51.162;13.574;2023-04-03T21:43:57;1.80;99.90
1417;DHT22;703;51.162;13.574;2023-04-03T21:46:22;1.80;99.90
1417;DHT22;703;51.162;13.574;2023-04-03T21:48:49;1.90;99.90
1417;DHT22;703;51.162;13.574;2023-04-03T21:51:15;1.90;99.90
1417;DHT22;703;51.162;13.574;2023-04-03T21:53:41;1.90;99.90
1417;DHT22;703;51.162;13.574;2023-04-03T21:56:09;1.80;99.90
1417;DHT22;703;51.162;13.574;2023-04-03T21:58:34;1.80;99.90
1417;DHT22;703;51.162;13.574;2023-04-03T22:01:10;1.80;99.90
1417;DHT22;703;51.162;13.574;2023-04-03T22:03:36;1.80;99.90
1417;DHT22;703;51.162;13.574;2023-04-03T22:06:03;1.80;99.90
1417;DHT22;703;51.162;13.574;2023-04-03T22:08:28;1.80;99.90
1417;DHT22;703;51.162;13.574;2023-04-03T22:11:08;1.80;99.90
1417;DHT22;703;51.162;13.574;2023-04-03T22:13:34;1.80;99.90
1417;DHT22;703;51.162;13.574;2023-04-03T22:16:00;1.80;99.90
1417;DHT22;703;51.162;13.574;2023-04-03T22:18:27;1.80;99.90
1417;DHT22;703;51.162;13.574;2023-04-03T22:20:52;1.80;99.90
1417;DHT22;703;51.162;13.574;2023-04-03T22:23:19;1.80;99.90
1417;DHT22;703;51.162;13.574;2023-04-03T22:26:08;1.80;99.90
1417;DHT22;703;51.162;13.574;2023-04-03T22:28:37;1.80;99.90
1417;DHT22;703;51.162;13.574;2023-04-03T22:31:03;1.80;99.90
1417;DHT22;703;51.162;13.574;2023-04-03T22:33:32;1.80;99.90
1417;DHT22;703;51.162;13.574;2023-04-03T22:35:57;1.80;99.90
1417;DHT22;703;51.162;13.574;2023-04-03T22:38:23;1.70;99.90
1417;DHT22;703;51.162;13.574;2023-04-03T22:41:00;1.80;99.90
1417;DHT22;703;51.162;13.574;2023-04-03T22:43:26;1.70;99.90
1417;DHT22;703;51.162;13.574;2023-04-03T22:45:52;1.70;99.90
1417;DHT22;703;51.162;13.574;2023-04-03T22:48:18;1.70;99.90
1417;DHT22;703;51.162;13.574;2023-04-03T22:50:44;1.70;99.90
1417;DHT22;703;51.162;13.574;2023-04-03T22:53:11;1.80;99.90
1417;DHT22;703;51.162;13.574;2023-04-03T22:55:36;1.70;99.90
1417;DHT22;703;51.162;13.574;2023-04-03T22:58:03;1.60;99.90
1417;DHT22;703;51.162;13.574;2023-04-03T23:00:29;1.70;99.90
1417;DHT22;703;51.162;13.574;2023-04-03T23:02:55;1.70;99.90
1417;DHT22;703;51.162;13.574;2023-04-03T23:05:20;1.70;99.90
1417;DHT22;703;51.162;13.574;2023-04-03T23:07:46;1.60;99.90
1417;DHT22;703;51.162;13.574;2023-04-03T23:10:11;1.60;99.90
1417;DHT22;703;51.162;13.574;2023-04-03T23:12:37;1.70;99.90
1417;DHT22;703;51.162;13.574;2023-04-03T23:15:07;1.60;99.90
1417;DHT22;703;51.162;13.574;2023-04-03T23:17:36;1.60;99.90
1417;DHT22;703;51.162;13.574;2023-04-03T23:20:03;1.60;99.90
1417;DHT22;703;51.162;13.574;2023-04-03T23:22:28;1.60;99.90
1417;DHT22;703;51.162;13.574;2023-04-03T23:24:54;1.50;99.90
1417;DHT22;703;51.162;13.574;2023-04-03T23:27:19;1.60;99.90
1417;DHT22;703;51.162;13.574;2023-04-03T23:29:45;1.60;99.90
1417;DHT22;703;51.162;13.574;2023-04-03T23:32:10;1.60;99.90
1417;DHT22;703;51.162;13.574;2023-04-03T23:34:36;1.50;99.90
1417;DHT22;703;51.162;13.574;2023-04-03T23:37:01;1.50;99.90
1417;DHT22;703;51.162;13.574;2023-04-03T23:39:27;1.50;99.90
1417;DHT22;703;51.162;13.574;2023-04-03T23:41:52;1.50;99.90
1417;DHT22;703;51.162;13.574;2023-04-03T23:44:19;1.50;99.90
1417;DHT22;703;51.162;13.574;2023-04-03T23:46:45;1.50;99.90
1417;DHT22;703;51.162;13.574;2023-04-03T23:49:10;1.50;99.90
1417;DHT22;703;51.162;13.574;2023-04-03T23:51:36;1.50;99.90
1417;DHT22;703;51.162;13.574;2023-04-03T23:54:01;1.50;99.90
1417;DHT22;703;51.162;13.574;2023-04-03T23:56:27;1.50;99.90
1417;DHT22;703;51.162;13.574;2023-04-03T23:58:52;1.40;99.90
